createdAt,value
2022-10-17T00:00:34.665Z,40.97
2022-10-17T00:03:02.948Z,39.97
2022-10-17T00:05:31.195Z,40.75
2022-10-17T00:07:59.223Z,40.72
2022-10-17T00:10:27.271Z,35.00
2022-10-17T00:12:56.627Z,36.80
2022-10-17T00:15:24.652Z,39.90
2022-10-17T00:17:52.616Z,36.67
2022-10-17T00:20:20.688Z,36.70
2022-10-17T00:22:48.665Z,58.25
2022-10-17T00:25:16.633Z,44.35
2022-10-17T00:27:44.956Z,37.75
2022-10-17T00:30:16.917Z,45.50
2022-10-17T00:32:44.928Z,38.67
2022-10-17T00:35:13.020Z,40.53
2022-10-17T00:37:40.968Z,37.30
2022-10-17T00:40:10.670Z,36.37
2022-10-17T00:42:38.695Z,36.33
2022-10-17T00:45:26.875Z,32.93
2022-10-17T00:47:59.752Z,38.33
2022-10-17T00:50:29.198Z,35.83
2022-10-17T00:52:59.128Z,39.10
2022-10-17T00:55:31.351Z,35.43
2022-10-17T00:58:01.535Z,37.80
2022-10-17T01:00:30.855Z,35.73
2022-10-17T01:02:58.823Z,37.57
2022-10-17T01:05:27.130Z,35.67
2022-10-17T01:07:55.957Z,33.57
2022-10-17T01:10:31.833Z,40.03
2022-10-17T01:13:09.480Z,37.37
2022-10-17T01:15:54.776Z,38.97
2022-10-17T01:18:37.239Z,33.57
2022-10-17T01:21:19.121Z,36.40
2022-10-17T01:24:25.695Z,33.97
2022-10-17T01:27:38.230Z,31.80
2022-10-17T01:30:50.763Z,34.77
2022-10-17T01:33:28.861Z,34.73
2022-10-17T01:36:04.952Z,33.73
2022-10-17T01:38:36.897Z,30.00
2022-10-17T01:41:09.203Z,32.40
2022-10-17T01:43:42.263Z,34.10
2022-10-17T01:46:16.672Z,33.47
2022-10-17T01:48:47.369Z,34.37
2022-10-17T01:51:21.439Z,34.93
2022-10-17T01:53:54.208Z,33.03
2022-10-17T01:56:26.169Z,34.87
2022-10-17T01:58:57.467Z,33.97
2022-10-17T02:01:27.851Z,36.57
2022-10-17T02:03:58.404Z,31.33
2022-10-17T02:06:26.597Z,34.33
2022-10-17T02:08:54.537Z,32.67
2022-10-17T02:11:24.622Z,30.33
2022-10-17T02:14:13.794Z,29.97
2022-10-17T02:16:46.739Z,32.33
2022-10-17T02:19:39.912Z,31.87
2022-10-17T02:22:17.452Z,26.97
2022-10-17T02:24:51.126Z,27.37
2022-10-17T02:27:29.259Z,29.70
2022-10-17T02:30:02.094Z,30.50
2022-10-17T02:32:36.387Z,30.60
2022-10-17T02:35:10.133Z,32.43
2022-10-17T02:37:39.364Z,30.63
2022-10-17T02:40:10.244Z,30.37
2022-10-17T02:42:39.730Z,27.07
2022-10-17T02:45:10.039Z,32.23
2022-10-17T02:47:44.202Z,30.53
2022-10-17T02:50:13.837Z,30.37
2022-10-17T02:52:49.368Z,28.27
2022-10-17T02:55:20.429Z,28.73
2022-10-17T02:57:52.805Z,29.90
2022-10-17T03:00:22.535Z,29.33
2022-10-17T03:02:52.027Z,30.70
2022-10-17T03:05:23.504Z,28.70
2022-10-17T03:07:51.826Z,29.67
2022-10-17T03:10:20.532Z,32.33
2022-10-17T03:12:48.633Z,30.13
2022-10-17T03:15:16.643Z,30.83
2022-10-17T03:20:13.485Z,33.17
2022-10-17T03:22:42.807Z,29.77
2022-10-17T03:25:10.752Z,30.37
2022-10-17T03:27:38.750Z,32.27
2022-10-17T03:30:08.124Z,30.87
2022-10-17T03:32:36.242Z,31.77
2022-10-17T03:35:04.399Z,34.33
2022-10-17T03:37:32.635Z,35.50
2022-10-17T03:40:02.044Z,30.93
2022-10-17T03:42:30.007Z,32.77
2022-10-17T03:44:58.263Z,30.23
2022-10-17T03:47:26.484Z,29.90
2022-10-17T03:49:54.572Z,28.97
2022-10-17T03:52:22.536Z,29.37
2022-10-17T03:54:51.445Z,31.70
2022-10-17T03:57:20.963Z,31.47
2022-10-17T03:59:48.896Z,32.47
2022-10-17T04:02:16.849Z,34.40
2022-10-17T04:04:44.786Z,28.50
2022-10-17T04:07:12.785Z,34.20
2022-10-17T04:09:40.748Z,31.27
2022-10-17T04:12:08.755Z,34.47
2022-10-17T04:14:38.626Z,33.70
2022-10-17T04:17:06.699Z,32.33
2022-10-17T04:19:34.881Z,31.63
2022-10-17T04:22:04.047Z,33.47
2022-10-17T04:24:32.511Z,32.40
2022-10-17T04:27:00.469Z,34.93
2022-10-17T04:29:28.670Z,31.00
2022-10-17T04:31:57.991Z,33.43
2022-10-17T04:34:26.099Z,31.87
2022-10-17T04:36:54.108Z,31.60
2022-10-17T04:39:22.048Z,33.03
2022-10-17T04:41:49.946Z,31.70
2022-10-17T04:44:18.106Z,32.40
2022-10-17T04:46:46.058Z,34.87
2022-10-17T04:49:15.530Z,29.77
2022-10-17T04:51:43.524Z,28.37
2022-10-17T04:54:11.469Z,34.77
2022-10-17T04:56:39.430Z,34.50
2022-10-17T04:59:07.359Z,29.60
2022-10-17T05:01:35.338Z,30.57
2022-10-17T05:04:03.310Z,33.63
2022-10-17T05:06:33.628Z,32.97
2022-10-17T05:09:01.635Z,33.13
2022-10-17T05:11:30.589Z,30.50
2022-10-17T05:14:00.341Z,36.40
2022-10-17T05:16:29.391Z,30.27
2022-10-17T05:18:59.379Z,32.60
2022-10-17T05:21:29.158Z,33.30
2022-10-17T05:23:58.777Z,35.43
2022-10-17T05:26:27.372Z,29.63
2022-10-17T05:28:55.389Z,31.53
2022-10-17T05:31:23.544Z,33.50
2022-10-17T05:33:51.489Z,34.37
2022-10-17T05:36:19.447Z,32.70
2022-10-17T05:38:51.083Z,32.07
2022-10-17T05:41:21.105Z,31.43
2022-10-17T05:43:50.324Z,35.80
2022-10-17T05:46:18.659Z,35.10
2022-10-17T05:48:46.590Z,33.80
2022-10-17T05:51:15.407Z,32.60
2022-10-17T05:53:43.658Z,35.90
2022-10-17T05:56:14.464Z,34.57
2022-10-17T05:58:50.312Z,32.10
2022-10-17T06:01:20.305Z,35.03
2022-10-17T06:03:48.343Z,33.30
2022-10-17T06:06:16.871Z,34.63
2022-10-17T06:08:45.635Z,35.23
2022-10-17T06:11:14.255Z,35.47
2022-10-17T06:13:43.765Z,40.30
2022-10-17T06:16:11.729Z,37.70
2022-10-17T06:18:39.835Z,35.20
2022-10-17T06:21:10.611Z,32.40
2022-10-17T06:23:38.617Z,37.90
2022-10-17T06:26:08.289Z,34.40
2022-10-17T06:28:37.441Z,39.00
2022-10-17T06:31:08.361Z,38.30
2022-10-17T06:33:37.074Z,35.70
2022-10-17T06:36:06.269Z,33.93
2022-10-17T06:38:35.500Z,39.80
2022-10-17T06:41:08.390Z,33.60
2022-10-17T06:43:36.746Z,34.13
2022-10-17T06:46:05.137Z,38.07
2022-10-17T06:48:34.674Z,36.50
2022-10-17T06:51:04.588Z,41.77
2022-10-17T06:53:34.651Z,34.33
2022-10-17T06:56:04.294Z,38.47
2022-10-17T06:58:34.000Z,41.23
2022-10-17T07:01:02.882Z,31.13
2022-10-17T07:03:31.609Z,35.33
2022-10-17T07:06:01.521Z,38.20
2022-10-17T07:08:29.835Z,31.23
2022-10-17T07:10:58.421Z,37.07
2022-10-17T07:13:26.598Z,36.20
2022-10-17T07:18:26.331Z,37.77
2022-10-17T07:20:55.035Z,41.00
2022-10-17T07:23:24.686Z,30.93
2022-10-17T07:25:53.757Z,29.77
2022-10-17T07:28:21.786Z,26.63
2022-10-17T07:30:52.091Z,28.13
2022-10-17T07:33:22.666Z,28.23
2022-10-17T07:35:52.586Z,26.87
2022-10-17T07:38:20.595Z,29.40
2022-10-17T07:40:56.696Z,26.27
2022-10-17T07:43:25.057Z,26.87
2022-10-17T07:45:53.301Z,25.33
2022-10-17T07:48:22.133Z,28.43
2022-10-17T07:50:50.350Z,21.65
2022-10-17T07:53:18.599Z,27.77
2022-10-17T07:55:47.897Z,31.63
2022-10-17T07:58:17.507Z,25.65
2022-10-17T08:00:48.291Z,24.07
2022-10-17T08:03:16.563Z,22.13
2022-10-17T08:05:44.500Z,27.75
2022-10-17T08:08:12.443Z,27.30
2022-10-17T08:10:40.432Z,26.20
2022-10-17T08:13:08.459Z,20.05
2022-10-17T08:15:39.592Z,22.20
2022-10-17T08:18:07.591Z,23.15
2022-10-17T08:20:35.591Z,20.38
2022-10-17T08:23:03.570Z,20.75
2022-10-17T08:25:31.984Z,21.88
2022-10-17T08:27:59.946Z,23.35
2022-10-17T08:30:30.622Z,22.10
2022-10-17T08:33:00.095Z,20.00
2022-10-17T08:35:28.160Z,22.60
2022-10-17T08:37:56.135Z,21.67
2022-10-17T08:40:27.268Z,29.02
2022-10-17T08:43:19.762Z,20.95
2022-10-17T08:45:52.903Z,20.80
2022-10-17T08:48:26.469Z,23.60
2022-10-17T08:50:57.573Z,19.88
2022-10-17T08:53:31.620Z,25.88
2022-10-17T08:56:07.222Z,18.95
2022-10-17T08:58:38.825Z,24.77
2022-10-17T09:01:14.586Z,24.27
2022-10-17T09:03:53.208Z,20.33
2022-10-17T09:06:29.819Z,18.42
2022-10-17T09:09:19.613Z,21.92
2022-10-17T09:12:03.850Z,22.60
2022-10-17T09:14:58.519Z,19.95
2022-10-17T09:17:37.854Z,17.85
2022-10-17T09:20:13.907Z,19.63
2022-10-17T09:22:46.559Z,21.58
2022-10-17T09:25:18.474Z,15.75
2022-10-17T09:27:49.660Z,20.50
2022-10-17T09:30:45.199Z,20.27
2022-10-17T09:33:28.369Z,19.52
2022-10-17T09:36:07.616Z,20.10
2022-10-17T09:38:40.944Z,24.00
2022-10-17T09:41:42.771Z,24.10
2022-10-17T09:44:20.717Z,22.05
2022-10-17T09:47:04.801Z,19.65
2022-10-17T09:49:35.393Z,17.77
2022-10-17T09:52:11.709Z,19.42
2022-10-17T09:54:44.186Z,21.15
2022-10-17T09:57:13.949Z,17.10
2022-10-17T09:59:44.164Z,23.95
2022-10-17T10:02:25.150Z,16.75
2022-10-17T10:05:06.674Z,16.70
2022-10-17T10:07:38.770Z,16.58
2022-10-17T10:10:09.613Z,15.95
2022-10-17T10:12:39.987Z,14.60
2022-10-17T10:15:32.416Z,17.75
2022-10-17T10:18:00.500Z,13.65
2022-10-17T10:20:35.014Z,15.48
2022-10-17T10:23:09.359Z,15.48
2022-10-17T10:25:37.687Z,14.85
2022-10-17T10:28:11.847Z,15.63
2022-10-17T10:30:40.098Z,14.35
2022-10-17T10:33:12.660Z,16.60
2022-10-17T10:35:40.880Z,14.75
2022-10-17T10:38:15.422Z,16.35
2022-10-17T10:40:48.840Z,18.52
2022-10-17T10:43:30.830Z,15.60
2022-10-17T10:45:59.381Z,14.90
2022-10-17T10:48:28.906Z,14.93
2022-10-17T10:51:00.421Z,14.85
2022-10-17T10:53:37.934Z,16.00
2022-10-17T10:56:13.684Z,16.38
2022-10-17T10:58:55.753Z,16.40
2022-10-17T11:01:30.372Z,12.23
2022-10-17T11:04:08.916Z,15.57
2022-10-17T11:06:42.088Z,13.40
2022-10-17T11:09:35.496Z,13.70
2022-10-17T11:12:08.187Z,15.15
2022-10-17T11:14:43.432Z,15.27
2022-10-17T11:17:22.856Z,14.13
2022-10-17T11:20:00.462Z,15.52
2022-10-17T11:22:32.416Z,14.70
2022-10-17T11:25:05.987Z,15.18
2022-10-17T11:27:35.505Z,12.50
2022-10-17T11:30:04.639Z,12.35
2022-10-17T11:32:38.749Z,15.20
2022-10-17T11:35:15.269Z,12.43
2022-10-17T11:37:49.007Z,12.35
2022-10-17T11:40:24.828Z,15.48
2022-10-17T11:42:58.640Z,16.52
2022-10-17T11:45:30.369Z,20.17
2022-10-17T11:48:03.356Z,16.27
2022-10-17T11:53:24.067Z,10.75
2022-10-17T11:55:54.446Z,14.23
2022-10-17T11:58:34.131Z,10.63
2022-10-17T12:01:11.921Z,11.63
2022-10-17T12:03:53.481Z,16.23
2022-10-17T12:06:32.471Z,11.93
2022-10-17T12:09:11.380Z,10.52
2022-10-17T12:11:54.019Z,14.13
2022-10-17T12:14:43.674Z,13.95
2022-10-17T12:17:36.957Z,14.43
2022-10-17T12:20:28.429Z,14.60
2022-10-17T12:22:58.105Z,13.13
2022-10-17T12:25:30.089Z,12.57
2022-10-17T12:28:14.171Z,13.88
2022-10-17T12:30:58.153Z,13.25
2022-10-17T12:33:33.773Z,12.13
2022-10-17T12:36:49.038Z,12.73
2022-10-17T12:39:51.337Z,12.00
2022-10-17T12:42:48.591Z,14.27
2022-10-17T12:45:52.561Z,13.15
2022-10-17T12:48:56.848Z,12.77
2022-10-17T12:51:40.490Z,14.60
2022-10-17T12:54:12.449Z,12.60
2022-10-17T12:56:43.083Z,12.88
2022-10-17T12:59:16.950Z,15.77
2022-10-17T13:01:49.456Z,14.73
2022-10-17T13:04:17.847Z,13.10
2022-10-17T13:06:48.515Z,12.63
2022-10-17T13:09:24.972Z,12.63
2022-10-17T13:11:53.926Z,12.75
2022-10-17T13:14:24.044Z,14.30
2022-10-17T13:16:55.516Z,14.95
2022-10-17T13:19:25.551Z,14.93
2022-10-17T13:21:56.237Z,14.95
2022-10-17T13:24:30.023Z,13.38
2022-10-17T13:26:58.550Z,12.40
2022-10-17T13:29:28.918Z,16.05
2022-10-17T13:32:04.524Z,14.60
2022-10-17T13:34:34.444Z,17.33
2022-10-17T13:37:05.196Z,12.32
2022-10-17T13:39:54.418Z,14.02
2022-10-17T13:42:26.288Z,13.23
2022-10-17T13:44:54.488Z,11.80
2022-10-17T13:47:25.586Z,10.00
2022-10-17T13:49:55.438Z,12.30
2022-10-17T13:52:26.320Z,9.90
2022-10-17T13:54:54.702Z,11.25
2022-10-17T13:57:25.469Z,13.52
2022-10-17T13:59:56.548Z,11.18
2022-10-17T14:02:30.013Z,9.90
2022-10-17T14:05:16.877Z,10.50
2022-10-17T14:08:11.926Z,13.77
2022-10-17T14:10:46.892Z,11.63
2022-10-17T14:13:23.263Z,10.75
2022-10-17T14:15:51.687Z,12.13
2022-10-17T14:18:26.063Z,10.20
2022-10-17T14:23:44.633Z,11.80
2022-10-17T14:26:16.221Z,10.10
2022-10-17T14:28:46.897Z,9.30
2022-10-17T14:31:31.634Z,9.15
2022-10-17T14:34:02.674Z,9.90
2022-10-17T14:36:37.043Z,14.77
2022-10-17T14:39:10.554Z,9.75
2022-10-17T14:41:45.687Z,14.25
2022-10-17T14:44:36.113Z,12.18
2022-10-17T14:47:30.741Z,14.05
2022-10-17T14:50:07.487Z,15.25
2022-10-17T14:52:36.326Z,14.25
2022-10-17T14:55:23.255Z,15.25
2022-10-17T14:57:51.629Z,12.70
2022-10-17T15:00:21.454Z,11.18
2022-10-17T15:02:50.836Z,11.93
2022-10-17T15:05:21.011Z,10.98
2022-10-17T15:07:49.000Z,11.15
2022-10-17T15:10:31.939Z,11.73
2022-10-17T15:13:26.085Z,9.80
2022-10-17T15:15:52.010Z,11.40
2022-10-17T15:18:20.436Z,11.52
2022-10-17T15:20:55.468Z,12.85
2022-10-17T15:23:33.232Z,11.95
2022-10-17T15:26:01.454Z,9.45
2022-10-17T15:28:29.565Z,9.48
2022-10-17T15:30:57.545Z,8.93
2022-10-17T15:33:25.560Z,10.63
2022-10-17T15:35:54.893Z,10.88
2022-10-17T15:38:22.849Z,10.10
2022-10-17T15:40:52.034Z,10.63
2022-10-17T15:43:20.230Z,11.15
2022-10-17T15:45:48.437Z,9.95
2022-10-17T15:48:20.838Z,11.73
2022-10-17T15:50:48.774Z,13.98
2022-10-17T15:53:18.150Z,11.30
2022-10-17T15:55:46.168Z,13.88
2022-10-17T15:58:16.799Z,12.18
2022-10-17T16:00:45.663Z,10.70
2022-10-17T16:03:14.462Z,13.85
2022-10-17T16:05:42.456Z,14.63
2022-10-17T16:08:10.421Z,17.30
2022-10-17T16:10:41.558Z,13.02
2022-10-17T16:13:17.168Z,11.73
2022-10-17T16:15:45.150Z,13.98
2022-10-17T16:18:13.167Z,18.17
2022-10-17T16:20:41.215Z,14.40
2022-10-17T16:23:09.162Z,17.02
2022-10-17T16:25:37.237Z,18.90
2022-10-17T16:28:08.252Z,18.17
2022-10-17T16:30:44.299Z,16.77
2022-10-17T16:33:13.060Z,21.02
2022-10-17T16:35:41.243Z,22.42
2022-10-17T16:38:09.342Z,31.92
2022-10-17T16:40:39.610Z,23.13
2022-10-17T16:43:09.045Z,29.55
2022-10-17T16:45:37.609Z,22.88
2022-10-17T16:48:05.914Z,27.08
2022-10-17T16:50:35.718Z,24.80
2022-10-17T16:53:04.134Z,21.60
2022-10-17T16:55:32.071Z,22.85
2022-10-17T16:58:01.513Z,20.67
2022-10-17T17:00:30.997Z,18.48
2022-10-17T17:02:59.195Z,22.92
2022-10-17T17:05:27.299Z,16.63
2022-10-17T17:07:55.907Z,17.23
2022-10-17T17:10:23.864Z,15.85
2022-10-17T17:12:51.804Z,18.77
2022-10-17T17:15:19.914Z,20.23
2022-10-17T17:17:52.435Z,15.43
2022-10-17T17:20:22.819Z,21.48
2022-10-17T17:22:51.884Z,14.73
2022-10-17T17:25:19.942Z,15.40
2022-10-17T17:27:47.946Z,18.80
2022-10-17T17:30:16.371Z,17.35
2022-10-17T17:32:44.322Z,16.27
2022-10-17T17:35:13.637Z,16.48
2022-10-17T17:37:41.592Z,14.90
2022-10-17T17:40:10.450Z,17.00
2022-10-17T17:42:38.413Z,18.23
2022-10-17T17:45:07.153Z,20.38
2022-10-17T17:47:35.082Z,24.95
2022-10-17T17:50:03.631Z,18.48
2022-10-17T17:52:33.174Z,21.38
2022-10-17T17:55:01.271Z,19.13
2022-10-17T17:57:30.519Z,18.92
2022-10-17T17:59:58.566Z,21.13
2022-10-17T18:02:26.671Z,20.33
2022-10-17T18:04:54.692Z,20.95
2022-10-17T18:07:22.641Z,21.45
2022-10-17T18:09:52.018Z,17.63
2022-10-17T18:12:20.032Z,19.65
2022-10-17T18:14:48.995Z,20.05
2022-10-17T18:17:17.053Z,19.60
2022-10-17T18:19:45.038Z,18.40
2022-10-17T18:22:13.075Z,19.38
2022-10-17T18:24:41.120Z,21.83
2022-10-17T18:27:12.731Z,19.25
2022-10-17T18:29:40.898Z,18.15
2022-10-17T18:32:10.298Z,25.88
2022-10-17T18:34:38.297Z,22.83
2022-10-17T18:37:06.493Z,17.20
2022-10-17T18:39:34.591Z,18.17
2022-10-17T18:42:02.625Z,22.30
2022-10-17T18:44:31.997Z,18.27
2022-10-17T18:47:03.818Z,22.38
2022-10-17T18:49:32.666Z,21.15
2022-10-17T18:52:00.736Z,19.52
2022-10-17T18:54:29.373Z,21.48
2022-10-17T18:56:57.384Z,18.88
2022-10-17T18:59:25.316Z,20.60
2022-10-17T19:01:54.687Z,18.85
2022-10-17T19:04:22.752Z,20.20
2022-10-17T19:06:50.717Z,20.75
2022-10-17T19:09:19.190Z,20.88
2022-10-17T19:11:47.140Z,21.20
2022-10-17T19:14:15.099Z,22.77
2022-10-17T19:16:44.827Z,21.23
2022-10-17T19:19:15.900Z,20.42
2022-10-17T19:21:44.398Z,22.80
2022-10-17T19:24:14.853Z,21.33
2022-10-17T19:26:43.612Z,24.65
2022-10-17T19:29:13.972Z,21.85
2022-10-17T19:31:42.656Z,22.15
2022-10-17T19:34:11.077Z,17.77
2022-10-17T19:36:40.754Z,20.55
2022-10-17T19:39:12.015Z,17.88
2022-10-17T19:41:41.171Z,18.98
2022-10-17T19:44:09.333Z,17.42
2022-10-17T19:46:37.527Z,16.88
2022-10-17T19:49:06.208Z,17.13
2022-10-17T19:51:34.519Z,17.60
2022-10-17T19:54:04.651Z,17.55
2022-10-17T19:56:37.700Z,16.67
2022-10-17T19:59:07.081Z,21.90
2022-10-17T20:01:38.814Z,17.63
2022-10-17T20:04:07.553Z,21.15
2022-10-17T20:06:36.306Z,20.77
2022-10-17T20:09:06.194Z,27.05
2022-10-17T20:11:34.360Z,20.42
2022-10-17T20:14:02.476Z,18.20
2022-10-17T20:16:32.783Z,22.27
2022-10-17T20:19:04.777Z,23.90
2022-10-17T20:21:35.003Z,27.75
2022-10-17T20:24:06.425Z,27.20
2022-10-17T20:26:38.631Z,22.90
2022-10-17T20:29:11.111Z,23.83
2022-10-17T20:31:39.664Z,25.30
2022-10-17T20:34:07.602Z,27.13
2022-10-17T20:36:37.431Z,22.10
2022-10-17T20:39:07.962Z,23.20
2022-10-17T20:41:36.113Z,23.60
2022-10-17T20:44:04.710Z,27.60
2022-10-17T20:46:37.605Z,26.55
2022-10-17T20:49:08.981Z,23.93
2022-10-17T20:51:37.387Z,24.38
2022-10-17T20:54:06.983Z,25.55
2022-10-17T20:56:35.790Z,27.50
2022-10-17T20:59:05.893Z,25.05
2022-10-17T21:01:36.034Z,25.95
2022-10-17T21:04:33.422Z,23.98
2022-10-17T21:06:53.449Z,27.02
2022-10-17T21:09:23.316Z,25.20
2022-10-17T21:11:55.100Z,27.50
2022-10-17T21:14:24.144Z,28.92
2022-10-17T21:16:53.152Z,33.30
2022-10-17T21:19:22.390Z,27.23
2022-10-17T21:21:50.497Z,40.28
2022-10-17T21:24:20.676Z,40.10
2022-10-17T21:26:55.577Z,31.60
2022-10-17T21:29:24.645Z,31.83
2022-10-17T21:31:53.113Z,34.20
2022-10-17T21:34:24.483Z,37.17
2022-10-17T21:36:53.003Z,35.47
2022-10-17T21:39:21.827Z,39.92
2022-10-17T21:41:51.742Z,35.45
2022-10-17T21:44:21.337Z,36.05
2022-10-17T21:46:50.006Z,33.50
2022-10-17T21:49:20.428Z,40.00
2022-10-17T21:51:48.897Z,43.08
2022-10-17T21:54:17.797Z,40.85
2022-10-17T21:56:45.826Z,34.92
2022-10-17T21:59:15.134Z,40.90
2022-10-17T22:01:45.015Z,35.45
2022-10-17T22:04:16.806Z,40.30
2022-10-17T22:06:46.557Z,30.65
2022-10-17T22:09:16.680Z,39.28
2022-10-17T22:11:47.076Z,36.67
2022-10-17T22:14:18.580Z,37.38
2022-10-17T22:16:48.148Z,39.05
2022-10-17T22:19:18.243Z,33.40
2022-10-17T22:21:46.608Z,31.90
2022-10-17T22:24:16.108Z,28.77
2022-10-17T22:26:44.903Z,31.77
2022-10-17T22:29:12.935Z,33.22
2022-10-17T22:31:42.290Z,29.90
2022-10-17T22:34:13.088Z,28.35
2022-10-17T22:36:41.115Z,31.63
2022-10-17T22:39:09.662Z,31.88
2022-10-17T22:41:37.699Z,34.15
2022-10-17T22:44:06.005Z,29.85
2022-10-17T22:46:33.994Z,28.85
2022-10-17T22:49:03.652Z,30.83
2022-10-17T22:51:31.669Z,28.13
2022-10-17T22:53:59.660Z,35.57
2022-10-17T22:56:27.633Z,26.17
2022-10-17T22:58:55.584Z,30.93
2022-10-17T23:01:25.424Z,32.17
2022-10-17T23:03:54.347Z,28.87
2022-10-17T23:06:24.293Z,27.40
2022-10-17T23:08:52.638Z,33.53
2022-10-17T23:11:21.218Z,25.87
2022-10-17T23:13:49.430Z,28.07
2022-10-17T23:16:17.481Z,25.43
2022-10-17T23:18:45.459Z,30.27
2022-10-17T23:21:13.512Z,29.27
2022-10-17T23:23:42.881Z,26.90
2022-10-17T23:26:14.627Z,29.93
2022-10-17T23:28:43.622Z,27.17
2022-10-17T23:31:16.035Z,25.73
2022-10-17T23:33:45.327Z,25.60
2022-10-17T23:36:14.768Z,28.70
2022-10-17T23:38:45.735Z,25.83
2022-10-17T23:41:14.603Z,25.33
2022-10-17T23:43:43.004Z,30.67
2022-10-17T23:46:11.201Z,30.77
2022-10-17T23:48:39.987Z,24.90
2022-10-17T23:51:08.756Z,24.80
2022-10-17T23:53:36.969Z,20.47
2022-10-17T23:56:07.004Z,22.13
2022-10-17T23:58:35.303Z,20.20
